createdAt,value
2023-04-25T00:02:16.159Z,6.27
2023-04-25T00:04:43.678Z,6.83
2023-04-25T00:07:11.512Z,7.07
2023-04-25T00:09:38.371Z,7.70
2023-04-25T00:12:05.994Z,8.27
2023-04-25T00:14:35.088Z,6.87
2023-04-25T00:17:02.072Z,6.70
2023-04-25T00:19:29.432Z,7.47
2023-04-25T00:21:56.632Z,6.83
2023-04-25T00:24:23.316Z,7.20
2023-04-25T00:26:50.260Z,8.17
2023-04-25T00:29:16.956Z,8.10
2023-04-25T00:31:43.760Z,6.83
2023-04-25T00:34:10.591Z,7.43
2023-04-25T00:36:37.308Z,7.10
2023-04-25T00:39:05.566Z,8.17
2023-04-25T00:41:32.401Z,7.17
2023-04-25T00:44:00.313Z,7.47
2023-04-25T00:46:27.050Z,7.53
2023-04-25T00:48:54.222Z,7.90
2023-04-25T00:51:22.126Z,7.87
2023-04-25T00:53:51.174Z,8.10
2023-04-25T00:56:18.786Z,7.63
2023-04-25T00:58:45.774Z,9.37
2023-04-25T01:01:13.691Z,9.50
2023-04-25T01:03:44.472Z,8.23
2023-04-25T01:06:11.954Z,8.60
2023-04-25T01:08:40.187Z,8.27
2023-04-25T01:11:07.456Z,11.40
2023-04-25T01:13:34.588Z,9.37
2023-04-25T01:16:02.742Z,9.10
2023-04-25T01:18:29.644Z,9.50
2023-04-25T01:20:56.805Z,8.93
2023-04-25T01:23:24.130Z,8.40
2023-04-25T01:25:51.660Z,9.83
2023-04-25T01:28:19.102Z,9.33
2023-04-25T01:30:46.098Z,9.27
2023-04-25T01:33:14.614Z,9.47
2023-04-25T01:35:41.400Z,8.30
2023-04-25T01:38:08.197Z,9.23
2023-04-25T01:40:39.578Z,8.70
2023-04-25T01:43:06.487Z,8.63
2023-04-25T01:45:34.110Z,8.53
2023-04-25T01:48:01.331Z,8.53
2023-04-25T01:50:28.605Z,9.10
2023-04-25T01:52:56.022Z,9.13
2023-04-25T01:55:22.799Z,8.37
2023-04-25T01:57:49.944Z,7.97
2023-04-25T02:00:16.900Z,9.90
2023-04-25T02:02:43.675Z,8.40
2023-04-25T02:05:10.722Z,8.73
2023-04-25T02:07:37.526Z,7.90
2023-04-25T02:10:04.764Z,6.70
2023-04-25T02:12:32.912Z,7.63
2023-04-25T02:14:59.689Z,6.00
2023-04-25T02:17:27.368Z,7.07
2023-04-25T02:19:54.517Z,6.07
2023-04-25T02:22:21.303Z,5.87
2023-04-25T02:24:48.073Z,5.80
2023-04-25T02:27:14.834Z,5.80
2023-04-25T02:29:41.585Z,5.93
2023-04-25T02:32:08.776Z,6.63
2023-04-25T02:34:35.661Z,7.07
2023-04-25T02:37:02.433Z,5.87
2023-04-25T02:39:29.318Z,6.00
2023-04-25T02:41:56.004Z,5.60
2023-04-25T02:44:23.227Z,5.80
2023-04-25T02:46:50.104Z,5.90
2023-04-25T02:49:16.922Z,6.20
2023-04-25T02:51:43.682Z,5.80
2023-04-25T02:54:10.926Z,7.90
2023-04-25T02:56:37.739Z,6.30
2023-04-25T02:59:04.449Z,6.37
2023-04-25T03:01:31.203Z,6.20
2023-04-25T03:03:57.962Z,6.23
2023-04-25T03:06:25.126Z,5.60
2023-04-25T03:08:51.805Z,5.90
2023-04-25T03:11:18.540Z,5.73
2023-04-25T03:13:45.260Z,6.90
2023-04-25T03:16:12.060Z,6.63
2023-04-25T03:18:38.759Z,6.00
2023-04-25T03:21:05.932Z,6.80
2023-04-25T03:23:32.703Z,6.63
2023-04-25T03:25:59.472Z,5.60
2023-04-25T03:28:26.426Z,6.60
2023-04-25T03:30:53.246Z,6.67
2023-04-25T03:33:19.986Z,7.80
2023-04-25T03:35:46.765Z,7.80
2023-04-25T03:38:13.489Z,6.90
2023-04-25T03:40:40.359Z,7.23
2023-04-25T03:43:07.468Z,6.20
2023-04-25T03:45:34.189Z,6.10
2023-04-25T03:48:01.184Z,8.07
2023-04-25T03:50:28.402Z,7.57
2023-04-25T03:52:55.147Z,7.00
2023-04-25T03:55:21.894Z,7.20
2023-04-25T03:57:49.659Z,6.77
2023-04-25T04:00:16.515Z,7.37
2023-04-25T04:02:45.269Z,7.40
2023-04-25T04:05:13.870Z,6.83
2023-04-25T04:07:41.228Z,7.93
2023-04-25T04:10:08.660Z,5.63
2023-04-25T04:12:35.563Z,6.00
2023-04-25T04:15:04.613Z,5.77
2023-04-25T04:17:31.533Z,6.43
2023-04-25T04:19:58.741Z,6.43
2023-04-25T04:22:25.649Z,6.27
2023-04-25T04:24:52.719Z,5.80
2023-04-25T04:27:20.366Z,6.30
2023-04-25T04:29:47.566Z,6.20
2023-04-25T04:32:15.826Z,5.97
2023-04-25T04:34:42.671Z,7.07
2023-04-25T04:37:10.734Z,6.40
2023-04-25T04:39:38.005Z,7.10
2023-04-25T04:42:05.916Z,6.93
2023-04-25T04:44:36.317Z,5.63
2023-04-25T04:47:04.760Z,7.17
2023-04-25T04:49:31.676Z,6.87
2023-04-25T04:51:59.757Z,5.80
2023-04-25T04:54:26.841Z,6.87
2023-04-25T04:56:53.913Z,5.60
2023-04-25T04:59:20.666Z,5.67
2023-04-25T05:01:47.872Z,7.57
2023-04-25T05:04:14.767Z,7.03
2023-04-25T05:06:41.653Z,6.87
2023-04-25T05:09:08.825Z,7.17
2023-04-25T05:11:35.628Z,7.07
2023-04-25T05:14:02.386Z,6.30
2023-04-25T05:16:29.611Z,7.10
2023-04-25T05:18:56.430Z,7.73
2023-04-25T05:21:23.456Z,6.50
2023-04-25T05:23:50.531Z,6.70
2023-04-25T05:26:17.395Z,6.37
2023-04-25T05:28:44.266Z,6.50
2023-04-25T05:31:11.716Z,6.50
2023-04-25T05:33:38.736Z,7.40
2023-04-25T05:36:06.015Z,6.93
2023-04-25T05:38:34.667Z,7.17
2023-04-25T05:41:01.964Z,6.30
2023-04-25T05:43:28.723Z,8.20
2023-04-25T05:45:55.609Z,5.23
2023-04-25T05:48:22.782Z,6.97
2023-04-25T05:50:49.630Z,6.03
2023-04-25T05:53:16.379Z,6.57
2023-04-25T05:55:43.140Z,6.47
2023-04-25T05:58:09.890Z,6.20
2023-04-25T06:00:36.604Z,6.63
2023-04-25T06:03:03.539Z,5.67
2023-04-25T06:05:30.837Z,7.10
2023-04-25T06:07:57.832Z,7.67
2023-04-25T06:10:24.542Z,6.27
2023-04-25T06:12:51.303Z,6.20
2023-04-25T06:15:28.184Z,6.17
2023-04-25T06:18:00.872Z,6.47
2023-04-25T06:20:28.085Z,6.20
2023-04-25T06:22:54.916Z,4.97
2023-04-25T06:25:22.082Z,5.50
2023-04-25T06:27:48.966Z,5.80
2023-04-25T06:30:16.258Z,5.50
2023-04-25T06:32:43.144Z,5.80
2023-04-25T06:35:11.430Z,6.10
2023-04-25T06:37:38.366Z,7.17
2023-04-25T06:40:05.955Z,4.90
2023-04-25T06:42:32.741Z,5.07
2023-04-25T06:44:59.569Z,4.97
2023-04-25T06:47:26.407Z,6.03
2023-04-25T06:49:53.676Z,5.27
2023-04-25T06:52:20.430Z,5.93
2023-04-25T06:54:47.300Z,4.13
2023-04-25T06:57:14.503Z,5.20
2023-04-25T06:59:41.199Z,4.43
2023-04-25T07:02:08.048Z,6.60
2023-04-25T07:04:35.175Z,5.23
2023-04-25T07:07:03.681Z,4.60
2023-04-25T07:09:31.104Z,5.33
2023-04-25T07:11:58.232Z,5.00
2023-04-25T07:14:25.293Z,4.60
2023-04-25T07:16:52.128Z,5.07
2023-04-25T07:19:18.985Z,5.07
2023-04-25T07:21:46.246Z,4.70
2023-04-25T07:24:13.178Z,4.50
2023-04-25T07:26:39.971Z,4.80
2023-04-25T07:29:06.732Z,4.53
2023-04-25T07:31:33.941Z,4.43
2023-04-25T07:34:02.149Z,4.00
2023-04-25T07:36:29.110Z,3.33
2023-04-25T07:38:56.235Z,4.73
2023-04-25T07:41:23.143Z,3.67
2023-04-25T07:43:49.921Z,4.00
2023-04-25T07:46:17.147Z,4.00
2023-04-25T07:48:44.336Z,3.77
2023-04-25T07:51:11.492Z,4.50
2023-04-25T07:53:39.193Z,3.97
2023-04-25T07:56:06.545Z,4.50
2023-04-25T07:58:33.388Z,4.07
2023-04-25T08:01:00.304Z,3.90
2023-04-25T08:03:27.356Z,4.30
2023-04-25T08:05:54.527Z,4.57
2023-04-25T08:08:21.762Z,3.70
2023-04-25T08:10:49.376Z,38.93
2023-04-25T08:13:16.447Z,4.23
2023-04-25T08:15:43.248Z,3.33
2023-04-25T08:18:10.659Z,4.60
2023-04-25T08:20:37.517Z,3.03
2023-04-25T08:23:04.222Z,3.43
2023-04-25T08:25:30.964Z,4.37
2023-04-25T08:27:58.202Z,3.70
2023-04-25T08:30:25.442Z,3.30
2023-04-25T08:32:52.328Z,3.70
2023-04-25T08:35:19.600Z,3.50
2023-04-25T08:37:46.322Z,2.97
2023-04-25T08:40:16.090Z,3.50
2023-04-25T08:42:43.631Z,3.27
2023-04-25T08:45:11.342Z,3.30
2023-04-25T08:47:40.946Z,3.77
2023-04-25T08:50:08.466Z,3.43
2023-04-25T08:52:44.735Z,3.13
2023-04-25T08:55:14.103Z,3.27
2023-04-25T08:57:43.824Z,2.77
2023-04-25T09:00:13.367Z,3.03
2023-04-25T09:02:41.318Z,3.20
2023-04-25T09:05:10.961Z,3.33
2023-04-25T09:07:37.847Z,3.17
2023-04-25T09:10:05.020Z,2.90
2023-04-25T09:12:32.417Z,3.67
2023-04-25T09:15:09.344Z,3.23
2023-04-25T09:17:36.430Z,2.50
2023-04-25T09:20:08.368Z,2.90
2023-04-25T09:22:36.864Z,2.83
2023-04-25T09:25:14.950Z,3.30
2023-04-25T09:27:53.046Z,2.70
2023-04-25T09:30:20.784Z,3.20
2023-04-25T09:32:48.401Z,3.00
2023-04-25T09:35:27.176Z,3.70
2023-04-25T09:37:53.961Z,3.00
2023-04-25T09:40:21.215Z,3.07
2023-04-25T09:42:48.036Z,2.50
2023-04-25T09:45:16.152Z,3.30
2023-04-25T09:47:45.040Z,3.67
2023-04-25T09:50:16.807Z,3.27
2023-04-25T09:52:44.058Z,2.80
2023-04-25T09:55:10.893Z,3.00
2023-04-25T09:57:41.007Z,3.20
2023-04-25T10:00:13.065Z,2.77
2023-04-25T10:02:40.370Z,2.50
2023-04-25T10:05:09.404Z,3.10
2023-04-25T10:07:39.116Z,2.73
2023-04-25T10:10:07.082Z,2.87
2023-04-25T10:12:34.646Z,2.63
2023-04-25T10:15:02.458Z,2.00
2023-04-25T10:17:29.663Z,2.67
2023-04-25T10:19:57.363Z,2.67
2023-04-25T10:22:46.200Z,2.07
2023-04-25T10:25:13.906Z,2.40
2023-04-25T10:27:41.214Z,2.23
2023-04-25T10:30:17.459Z,2.50
2023-04-25T10:32:45.047Z,2.60
2023-04-25T10:35:16.727Z,2.10
2023-04-25T10:38:00.947Z,2.50
2023-04-25T10:40:28.116Z,2.33
2023-04-25T10:42:56.883Z,2.70
2023-04-25T10:45:23.906Z,2.33
2023-04-25T10:47:51.075Z,2.50
2023-04-25T10:50:18.248Z,2.50
2023-04-25T10:52:45.615Z,2.90
2023-04-25T10:55:12.807Z,2.50
2023-04-25T10:57:47.172Z,2.30
2023-04-25T11:00:19.964Z,2.73
2023-04-25T11:02:54.265Z,1.90
2023-04-25T11:05:51.030Z,2.07
2023-04-25T11:08:36.413Z,2.60
2023-04-25T11:11:03.598Z,2.53
2023-04-25T11:13:31.590Z,2.73
2023-04-25T11:16:07.168Z,2.03
2023-04-25T11:18:45.623Z,2.63
2023-04-25T11:21:12.871Z,2.40
2023-04-25T11:23:39.713Z,2.27
2023-04-25T11:26:06.654Z,2.30
2023-04-25T11:28:33.368Z,3.03
2023-04-25T11:31:00.150Z,2.73
2023-04-25T11:33:30.925Z,2.83
2023-04-25T11:35:58.048Z,2.40
2023-04-25T11:38:27.472Z,2.80
2023-04-25T11:40:56.402Z,2.57
2023-04-25T11:43:23.823Z,2.43
2023-04-25T11:45:54.175Z,2.00
2023-04-25T11:48:25.851Z,2.43
2023-04-25T11:50:53.571Z,2.27
2023-04-25T11:53:20.357Z,2.23
2023-04-25T11:55:47.220Z,2.40
2023-04-25T11:58:14.846Z,2.40
2023-04-25T12:00:50.447Z,2.40
2023-04-25T12:03:19.367Z,2.13
2023-04-25T12:05:47.651Z,2.13
2023-04-25T12:08:15.683Z,2.40
2023-04-25T12:10:44.074Z,2.13
2023-04-25T12:13:25.578Z,1.90
2023-04-25T12:15:52.871Z,1.67
2023-04-25T12:18:26.756Z,2.27
2023-04-25T12:20:55.197Z,1.67
2023-04-25T12:23:29.183Z,2.10
2023-04-25T12:25:57.138Z,1.80
2023-04-25T12:28:26.068Z,1.90
2023-04-25T12:31:03.185Z,2.13
2023-04-25T12:33:40.733Z,2.10
2023-04-25T12:36:12.169Z,2.27
2023-04-25T12:38:41.114Z,2.23
2023-04-25T12:41:08.479Z,2.00
2023-04-25T12:43:35.830Z,2.50
2023-04-25T12:46:02.669Z,2.83
2023-04-25T12:48:29.524Z,2.00
2023-04-25T12:50:56.701Z,2.10
2023-04-25T12:53:26.951Z,1.90
2023-04-25T12:58:26.769Z,1.70
2023-04-25T13:00:53.969Z,1.83
2023-04-25T13:03:20.943Z,1.73
2023-04-25T13:05:47.865Z,1.90
2023-04-25T13:08:14.764Z,1.90
2023-04-25T13:10:41.615Z,1.93
2023-04-25T13:13:08.484Z,2.40
2023-04-25T13:15:35.257Z,1.93
2023-04-25T13:18:02.331Z,2.00
2023-04-25T13:20:29.117Z,2.17
2023-04-25T13:22:56.217Z,1.73
2023-04-25T13:25:23.051Z,2.03
2023-04-25T13:27:49.839Z,1.50
2023-04-25T13:30:16.791Z,2.23
2023-04-25T13:32:43.690Z,1.77
2023-04-25T13:35:12.941Z,1.47
2023-04-25T13:37:40.576Z,1.53
2023-04-25T13:40:10.308Z,2.53
2023-04-25T13:42:40.591Z,1.93
2023-04-25T13:45:08.553Z,1.70
2023-04-25T13:47:36.345Z,2.00
2023-04-25T13:50:04.616Z,1.80
2023-04-25T13:52:31.713Z,1.90
2023-04-25T13:54:59.472Z,2.37
2023-04-25T13:57:26.784Z,2.20
2023-04-25T13:59:54.706Z,1.73
2023-04-25T14:02:21.461Z,1.70
2023-04-25T14:04:48.332Z,1.87
2023-04-25T14:07:18.940Z,2.20
2023-04-25T14:09:45.924Z,2.20
2023-04-25T14:12:13.124Z,1.97
2023-04-25T14:14:39.899Z,2.00
2023-04-25T14:17:07.815Z,2.10
2023-04-25T14:19:34.878Z,2.30
2023-04-25T14:22:01.878Z,1.80
2023-04-25T14:24:28.609Z,2.50
2023-04-25T14:26:55.976Z,1.87
2023-04-25T14:29:22.711Z,1.87
2023-04-25T14:31:49.571Z,2.13
2023-04-25T14:34:16.505Z,2.13
2023-04-25T14:36:43.625Z,1.97
2023-04-25T14:39:11.055Z,2.63
2023-04-25T14:41:38.502Z,1.70
2023-04-25T14:44:05.700Z,2.30
2023-04-25T14:46:32.627Z,1.70
2023-04-25T14:48:59.520Z,2.30
2023-04-25T14:51:27.404Z,1.50
2023-04-25T14:53:54.483Z,1.93
2023-04-25T14:56:21.419Z,2.33
2023-04-25T14:58:48.573Z,3.70
2023-04-25T15:01:15.552Z,2.60
2023-04-25T15:03:43.002Z,2.00
2023-04-25T15:06:10.138Z,2.53
2023-04-25T15:08:37.188Z,2.33
2023-04-25T15:11:04.538Z,2.60
2023-04-25T15:13:31.852Z,2.60
2023-04-25T15:15:58.745Z,4.47
2023-04-25T15:18:25.770Z,4.63
2023-04-25T15:20:53.997Z,4.90
2023-04-25T15:23:22.367Z,2.90
2023-04-25T15:25:52.716Z,4.27
2023-04-25T15:28:22.373Z,2.80
2023-04-25T15:30:49.624Z,2.40
2023-04-25T15:33:16.624Z,2.80
2023-04-25T15:35:43.490Z,4.40
2023-04-25T15:38:11.548Z,3.00
2023-04-25T15:40:38.630Z,3.80
2023-04-25T15:43:05.494Z,2.87
2023-04-25T15:45:33.061Z,2.90
2023-04-25T15:47:59.927Z,2.63
2023-04-25T15:50:27.090Z,2.00
2023-04-25T15:52:54.154Z,2.07
2023-04-25T15:55:21.900Z,2.20
2023-04-25T15:57:51.171Z,2.07
2023-04-25T16:00:19.385Z,2.50
2023-04-25T16:02:48.309Z,2.20
2023-04-25T16:05:15.836Z,2.20
2023-04-25T16:07:44.308Z,2.33
2023-04-25T16:10:12.219Z,2.57
2023-04-25T16:12:42.088Z,2.30
2023-04-25T16:15:09.292Z,2.20
2023-04-25T16:17:36.165Z,1.97
2023-04-25T16:20:09.450Z,1.97
2023-04-25T16:22:38.192Z,2.30
2023-04-25T16:25:05.813Z,1.93
2023-04-25T16:27:34.662Z,1.57
2023-04-25T16:30:02.259Z,1.87
2023-04-25T16:32:29.048Z,2.30
2023-04-25T16:34:58.117Z,1.90
2023-04-25T16:37:25.723Z,1.80
2023-04-25T16:39:52.636Z,2.50
2023-04-25T16:42:19.881Z,2.03
2023-04-25T16:44:47.395Z,2.03
2023-04-25T16:47:17.959Z,1.93
2023-04-25T16:49:46.397Z,2.10
2023-04-25T16:52:13.277Z,2.30
2023-04-25T16:54:40.038Z,2.00
2023-04-25T16:57:10.426Z,2.10
2023-04-25T16:59:41.460Z,2.03
2023-04-25T17:02:12.803Z,2.40
2023-04-25T17:04:40.728Z,2.00
2023-04-25T17:07:08.556Z,2.00
2023-04-25T17:09:35.755Z,2.07
2023-04-25T17:12:03.765Z,1.90
2023-04-25T17:14:32.970Z,2.43
2023-04-25T17:16:59.877Z,2.00
2023-04-25T17:19:27.430Z,2.13
2023-04-25T17:21:54.361Z,1.70
2023-04-25T17:24:21.956Z,2.13
2023-04-25T17:26:49.109Z,2.10
2023-04-25T17:29:16.091Z,2.97
2023-04-25T17:31:44.073Z,2.20
2023-04-25T17:34:12.189Z,2.17
2023-04-25T17:36:38.874Z,2.30
2023-04-25T17:39:07.345Z,2.53
2023-04-25T17:41:34.100Z,2.80
2023-04-25T17:44:00.946Z,2.90
2023-04-25T17:46:29.507Z,2.33
2023-04-25T17:48:58.197Z,2.40
2023-04-25T17:51:25.092Z,2.30
2023-04-25T17:53:52.015Z,2.43
2023-04-25T17:56:26.762Z,2.67
2023-04-25T17:58:54.595Z,2.67
2023-04-25T18:01:21.887Z,2.40
2023-04-25T18:03:49.913Z,2.30
2023-04-25T18:06:17.900Z,2.10
2023-04-25T18:08:45.159Z,2.87
2023-04-25T18:11:12.401Z,2.20
2023-04-25T18:13:39.613Z,2.03
2023-04-25T18:16:07.103Z,2.30
2023-04-25T18:18:36.095Z,2.77
2023-04-25T18:21:05.272Z,2.90
2023-04-25T18:23:34.068Z,2.63
2023-04-25T18:26:04.371Z,4.30
2023-04-25T18:28:31.242Z,3.33
2023-04-25T18:30:58.055Z,2.57
2023-04-25T18:33:25.287Z,3.53
2023-04-25T18:38:34.849Z,5.70
2023-04-25T18:41:13.087Z,2.60
2023-04-25T18:43:47.854Z,3.50
2023-04-25T18:46:14.659Z,2.70
2023-04-25T18:48:41.587Z,3.60
2023-04-25T18:51:08.933Z,3.00
2023-04-25T18:53:37.381Z,2.33
2023-04-25T18:56:04.713Z,2.77
2023-04-25T18:58:32.523Z,2.63
2023-04-25T19:01:00.094Z,2.43
2023-04-25T19:03:27.707Z,2.67
2023-04-25T19:05:54.562Z,3.53
2023-04-25T19:08:21.667Z,3.37
2023-04-25T19:10:50.414Z,3.43
2023-04-25T19:13:17.213Z,3.10
2023-04-25T19:15:43.979Z,3.27
2023-04-25T19:18:10.884Z,3.03
2023-04-25T19:20:37.894Z,3.93
2023-04-25T19:23:05.428Z,3.57
2023-04-25T19:25:32.531Z,3.60
2023-04-25T19:28:00.645Z,3.93
2023-04-25T19:30:29.346Z,5.20
2023-04-25T19:32:59.072Z,4.40
2023-04-25T19:35:30.787Z,3.97
2023-04-25T19:37:57.669Z,4.43
2023-04-25T19:40:25.336Z,3.83
2023-04-25T19:42:52.151Z,3.60
2023-04-25T19:45:19.040Z,4.10
2023-04-25T19:47:45.858Z,4.80
2023-04-25T19:50:12.927Z,5.23
2023-04-25T19:52:40.155Z,4.60
2023-04-25T19:55:07.653Z,5.27
2023-04-25T19:57:37.694Z,4.90
2023-04-25T20:00:08.998Z,5.00
2023-04-25T20:02:36.858Z,5.40
2023-04-25T20:05:06.182Z,5.07
2023-04-25T20:07:33.223Z,5.20
2023-04-25T20:10:04.070Z,4.90
2023-04-25T20:12:30.895Z,5.07
2023-04-25T20:14:58.478Z,4.63
2023-04-25T20:17:25.884Z,3.40
2023-04-25T20:19:52.966Z,4.63
2023-04-25T20:22:19.793Z,4.47
2023-04-25T20:24:46.634Z,3.93
2023-04-25T20:27:13.782Z,4.70
2023-04-25T20:29:42.152Z,4.20
2023-04-25T20:32:09.760Z,4.43
2023-04-25T20:34:37.231Z,3.70
2023-04-25T20:37:04.360Z,3.60
2023-04-25T20:39:33.203Z,4.17
2023-04-25T20:42:00.138Z,3.87
2023-04-25T20:44:27.027Z,3.70
2023-04-25T20:46:53.919Z,3.33
2023-04-25T20:49:20.861Z,3.47
2023-04-25T20:51:47.762Z,3.67
2023-04-25T20:54:14.620Z,3.60
2023-04-25T20:56:41.450Z,3.80
2023-04-25T20:59:09.122Z,3.70
2023-04-25T21:01:36.063Z,4.43
2023-04-25T21:04:03.170Z,4.50
2023-04-25T21:06:30.193Z,3.97
2023-04-25T21:08:56.936Z,4.23
2023-04-25T21:11:23.787Z,4.43
2023-04-25T21:13:51.306Z,3.80
2023-04-25T21:16:18.313Z,3.47
2023-04-25T21:18:45.127Z,4.23
2023-04-25T21:21:11.892Z,5.17
2023-04-25T21:23:38.727Z,4.80
2023-04-25T21:26:06.127Z,4.67
2023-04-25T21:28:32.934Z,4.57
2023-04-25T21:30:59.724Z,4.63
2023-04-25T21:33:26.535Z,4.57
2023-04-25T21:35:53.287Z,3.67
2023-04-25T21:38:20.104Z,4.00
2023-04-25T21:40:46.965Z,4.20
2023-04-25T21:43:13.878Z,4.00
2023-04-25T21:46:05.618Z,4.17
2023-04-25T21:48:28.264Z,4.17
2023-04-25T21:50:56.122Z,3.97
2023-04-25T21:53:23.012Z,3.97
2023-04-25T21:55:49.721Z,5.40
2023-04-25T21:58:17.007Z,4.07
2023-04-25T22:00:44.362Z,3.97
2023-04-25T22:03:11.727Z,4.10
2023-04-25T22:05:38.573Z,4.00
2023-04-25T22:08:05.321Z,4.30
2023-04-25T22:10:32.672Z,6.00
2023-04-25T22:12:59.440Z,4.13
2023-04-25T22:15:26.761Z,3.93
2023-04-25T22:17:56.326Z,4.00
2023-04-25T22:20:26.512Z,4.33
2023-04-25T22:22:54.602Z,3.83
2023-04-25T22:25:22.162Z,3.67
2023-04-25T22:27:49.432Z,3.90
2023-04-25T22:30:16.862Z,3.10
2023-04-25T22:32:43.942Z,3.80
2023-04-25T22:35:12.043Z,3.60
2023-04-25T22:37:39.109Z,4.10
2023-04-25T22:40:09.356Z,3.40
2023-04-25T22:42:39.855Z,5.20
2023-04-25T22:45:08.478Z,3.70
2023-04-25T22:47:39.266Z,4.30
2023-04-25T22:50:08.344Z,3.23
2023-04-25T22:52:35.396Z,3.80
2023-04-25T22:55:05.386Z,3.03
2023-04-25T22:57:33.036Z,3.90
2023-04-25T22:59:59.857Z,3.50
2023-04-25T23:02:27.608Z,3.77
2023-04-25T23:04:55.052Z,3.87
2023-04-25T23:07:22.065Z,3.90
2023-04-25T23:09:49.332Z,3.70
2023-04-25T23:12:19.311Z,4.50
2023-04-25T23:14:50.971Z,4.17
2023-04-25T23:17:17.694Z,5.73
2023-04-25T23:19:45.226Z,4.00
2023-04-25T23:22:12.465Z,4.37
2023-04-25T23:24:40.458Z,3.93
2023-04-25T23:27:07.584Z,3.90
2023-04-25T23:29:34.773Z,4.27
2023-04-25T23:32:01.740Z,4.37
2023-04-25T23:34:32.516Z,4.70
2023-04-25T23:37:01.438Z,4.50
2023-04-25T23:39:28.873Z,4.00
2023-04-25T23:41:55.881Z,4.33
2023-04-25T23:44:22.727Z,4.83
2023-04-25T23:46:50.354Z,4.43
2023-04-25T23:49:17.132Z,4.30
2023-04-25T23:51:44.304Z,4.77
2023-04-25T23:54:11.225Z,4.50
2023-04-25T23:56:37.942Z,4.27
2023-04-25T23:59:04.888Z,4.37
